Time;durP1;ratioP1;P1;durP2;ratioP2;P2;SDS_P1;SDS_P2;PMS_P1;PMS_P2;Temp;Humidity;BMP_temperature;BMP_pressure;BME280_temperature;BME280_humidity;BME280_pressure;Samples;Min_cycle;Max_cycle;Signal;HPM_P1;HPM_P2
2021/12/03 00:00:19;;;;;;;2.00;1.77;;;;;;;-1.88;100.00;92337.09;2090637;28;20028;-89
2021/12/03 00:01:32;;;;;;;3.42;1.77;;;;;;;-2.06;100.00;92326.41;2101683;28;20024;-89
2021/12/03 00:02:33;;;;;;;1.70;1.55;;;;;;;-1.92;100.00;92323.22;2107129;28;20484;-87
2021/12/03 00:03:35;;;;;;;2.50;1.40;;;;;;;-1.98;100.00;92324.63;2090485;28;20025;-89
2021/12/03 00:04:36;;;;;;;2.08;1.50;;;;;;;-1.89;100.00;92334.81;2093822;28;20496;-88
2021/12/03 00:05:37;;;;;;;1.90;1.70;;;;;;;-1.90;100.00;92336.69;2098812;28;20146;-88
2021/12/03 00:06:41;;;;;;;1.65;1.50;;;;;;;-1.93;100.00;92328.78;2107287;28;20028;-89
2021/12/03 00:07:43;;;;;;;3.83;1.77;;;;;;;-2.13;100.00;92336.03;2084210;28;20040;-87
2021/12/03 00:08:44;;;;;;;1.85;1.52;;;;;;;-2.03;100.00;92344.00;2082638;28;20112;-88
2021/12/03 00:09:45;;;;;;;2.97;1.83;;;;;;;-1.88;100.00;92337.09;2090538;28;20032;-88
2021/12/03 00:10:53;;;;;;;1.88;1.45;;;;;;;-1.84;100.00;92337.91;2082216;28;20128;-91
2021/12/03 00:11:54;;;;;;;3.92;1.70;;;;;;;-2.03;100.00;92328.31;2085827;28;20470;-88
2021/12/03 00:12:58;;;;;;;2.67;2.00;;;;;;;-1.98;100.00;92334.34;2083865;28;20033;-87
2021/12/03 00:13:59;;;;;;;1.98;1.75;;;;;;;-2.10;100.00;92346.56;2075035;28;20487;-87
2021/12/03 00:15:00;;;;;;;2.63;1.75;;;;;;;-1.97;100.00;92333.25;2082153;28;20525;-89
2021/12/03 00:16:01;;;;;;;2.30;1.73;;;;;;;-2.07;100.00;92337.97;2082303;28;20032;-87
2021/12/03 00:17:03;;;;;;;3.22;1.73;;;;;;;-1.97;100.00;92339.25;2090529;28;20619;-88
2021/12/03 00:18:04;;;;;;;2.70;1.70;;;;;;;-1.81;100.00;92350.25;2100980;28;20024;-88
2021/12/03 00:19:05;;;;;;;3.45;2.00;;;;;;;-1.71;100.00;92343.66;2098800;28;20029;-89
2021/12/03 00:20:10;;;;;;;1.77;1.67;;;;;;;-1.84;100.00;92334.53;2098802;28;20496;-87
2021/12/03 00:21:12;;;;;;;2.47;1.88;;;;;;;-2.05;100.00;92340.25;2087498;28;20108;-88
2021/12/03 00:22:13;;;;;;;1.92;1.75;;;;;;;-2.08;100.00;92344.31;2090282;28;20496;-90
2021/12/03 00:23:15;;;;;;;2.83;2.00;;;;;;;-2.08;100.00;92341.72;2099165;28;20105;-90
2021/12/03 00:24:16;;;;;;;3.15;2.10;;;;;;;-2.09;100.00;92340.22;2099100;28;20020;-88
2021/12/03 00:25:18;;;;;;;4.20;2.17;;;;;;;-2.01;100.00;92346.28;2093954;28;20466;-89
2021/12/03 00:26:19;;;;;;;2.20;1.70;;;;;;;-1.97;100.00;92343.72;2082354;28;20022;-89
2021/12/03 00:27:23;;;;;;;2.83;2.13;;;;;;;-2.09;100.00;92355.91;2082206;28;20028;-88
2021/12/03 00:28:28;;;;;;;2.15;1.85;;;;;;;-2.18;100.00;92355.44;2090802;28;20025;-88
2021/12/03 00:29:29;;;;;;;5.07;2.28;;;;;;;-2.11;100.00;92360.00;2083226;28;20826;-89
2021/12/03 00:30:31;;;;;;;2.65;2.20;;;;;;;-2.12;100.00;92363.72;2084517;28;20104;-88
2021/12/03 00:31:32;;;;;;;3.47;2.53;;;;;;;-2.23;100.00;92358.34;2106917;28;20107;-89
2021/12/03 00:32:33;;;;;;;3.55;2.33;;;;;;;-2.25;100.00;92365.03;2097805;28;20020;-91
2021/12/03 00:33:36;;;;;;;2.78;1.90;;;;;;;-2.31;100.00;92361.97;2090433;28;20034;-87
2021/12/03 00:34:36;;;;;;;2.63;2.17;;;;;;;-2.34;100.00;92371.28;2090849;28;20381;-88
2021/12/03 00:35:37;;;;;;;3.45;2.55;;;;;;;-2.26;100.00;92361.66;2090518;28;20028;-89
2021/12/03 00:36:38;;;;;;;2.70;2.15;;;;;;;-2.18;100.00;92373.00;2098641;28;20048;-88
2021/12/03 00:37:40;;;;;;;2.53;2.20;;;;;;;-2.25;100.00;92372.88;2098367;28;20082;-89
2021/12/03 00:38:50;;;;;;;3.20;2.30;;;;;;;-2.11;100.00;92373.06;2098804;28;20099;-90
2021/12/03 00:39:51;;;;;;;2.70;2.50;;;;;;;-2.16;100.00;92382.00;2095928;28;20508;-89
2021/12/03 00:41:12;;;;;;;3.58;2.10;;;;;;;-2.03;100.00;92385.91;2090205;28;20065;-87
2021/12/03 00:42:16;;;;;;;2.78;2.58;;;;;;;-2.11;100.00;92391.41;2092574;28;20108;-88
2021/12/03 00:43:18;;;;;;;3.83;2.38;;;;;;;-2.08;100.00;92382.84;2095103;28;20025;-86
2021/12/03 00:44:23;;;;;;;2.17;1.98;;;;;;;-1.97;100.00;92390.84;2097766;28;20393;-89
2021/12/03 00:45:24;;;;;;;2.33;2.13;;;;;;;-1.90;100.00;92394.31;2074931;28;20040;-87
2021/12/03 00:46:25;;;;;;;2.78;2.28;;;;;;;-1.92;100.00;92401.78;2082076;28;20155;-87
2021/12/03 00:47:29;;;;;;;4.43;2.30;;;;;;;-1.92;100.00;92401.03;2081692;28;20120;-87
2021/12/03 00:48:34;;;;;;;2.40;2.20;;;;;;;-1.96;100.00;92403.59;2087362;28;20497;-89
2021/12/03 00:49:39;;;;;;;2.47;2.30;;;;;;;-1.98;100.00;92402.41;2098971;28;20077;-89
2021/12/03 00:50:40;;;;;;;1.98;1.88;;;;;;;-2.09;100.00;92408.28;2099165;28;20043;-89
2021/12/03 00:51:41;;;;;;;2.15;1.95;;;;;;;-2.12;100.00;92403.00;2082253;28;20038;-88
2021/12/03 00:52:42;;;;;;;2.47;1.95;;;;;;;-2.34;100.00;92405.31;2081824;28;20095;-88
2021/12/03 00:53:43;;;;;;;2.85;2.13;;;;;;;-2.37;100.00;92405.25;2090059;28;20047;-87
2021/12/03 00:54:45;;;;;;;3.67;2.40;;;;;;;-2.16;100.00;92405.56;2090125;28;20112;-87
2021/12/03 00:55:46;;;;;;;2.55;2.20;;;;;;;-2.05;100.00;92403.84;2081945;28;20552;-87
2021/12/03 00:56:47;;;;;;;3.30;2.47;;;;;;;-2.08;100.00;92407.16;2081959;28;20064;-89
2021/12/03 00:57:48;;;;;;;2.90;2.47;;;;;;;-2.10;100.00;92406.78;2081895;28;20041;-87
2021/12/03 00:58:49;;;;;;;3.40;3.10;;;;;;;-1.95;100.00;92412.94;2081332;28;20029;-89
2021/12/03 00:59:50;;;;;;;2.17;2.05;;;;;;;-2.00;100.00;92409.88;2084938;28;20449;-87
2021/12/03 01:00:51;;;;;;;3.08;2.20;;;;;;;-2.20;100.00;92404.75;2081712;28;20029;-87
2021/12/03 01:01:53;;;;;;;2.50;2.25;;;;;;;-2.00;100.00;92415.13;2089764;28;20032;-88
2021/12/03 01:02:56;;;;;;;2.50;2.30;;;;;;;-1.88;100.00;92404.44;2098151;28;20032;-88
2021/12/03 01:04:00;;;;;;;3.63;2.42;;;;;;;-2.14;100.00;92407.84;2093514;28;20052;-89
2021/12/03 01:05:02;;;;;;;2.28;2.08;;;;;;;-2.03;100.00;92411.34;2086771;28;20029;-87
2021/12/03 01:06:04;;;;;;;4.82;2.30;;;;;;;-2.19;100.00;92416.00;2091010;28;20033;-88
2021/12/03 01:07:05;;;;;;;2.25;2.03;;;;;;;-2.18;100.00;92414.88;2084746;28;20072;-89
2021/12/03 01:08:07;;;;;;;3.92;2.20;;;;;;;-2.15;100.00;92422.78;2084949;28;20482;-88
2021/12/03 01:09:09;;;;;;;2.53;2.10;;;;;;;-2.29;100.00;92428.53;2093310;28;20020;-88
2021/12/03 01:10:11;;;;;;;2.85;2.17;;;;;;;-2.23;100.00;92421.16;2093342;28;20091;-90
2021/12/03 01:11:14;;;;;;;3.30;2.47;;;;;;;-2.22;100.00;92422.69;2101388;28;20028;-90
2021/12/03 01:12:18;;;;;;;4.95;2.78;;;;;;;-2.12;100.00;92437.78;2096633;28;20056;-89
2021/12/03 01:13:19;;;;;;;2.50;2.30;;;;;;;-2.33;100.00;92435.63;2082251;28;20478;-88
2021/12/03 01:14:20;;;;;;;2.63;2.30;;;;;;;-2.19;100.00;92431.69;2096497;28;20124;-87
2021/12/03 01:15:27;;;;;;;5.38;2.38;;;;;;;-2.13;100.00;92441.50;2090279;28;20083;-89
2021/12/03 01:16:30;;;;;;;5.13;2.40;;;;;;;-2.13;100.00;92438.13;2104953;28;20036;-88
2021/12/03 01:17:31;;;;;;;4.03;2.58;;;;;;;-2.20;100.00;92438.78;2097895;28;20367;-88
2021/12/03 01:18:34;;;;;;;2.60;2.40;;;;;;;-2.00;100.00;92443.94;2089864;28;20092;-88
2021/12/03 01:19:36;;;;;;;3.90;2.50;;;;;;;-2.23;100.00;92436.13;2098338;28;20119;-89
2021/12/03 01:20:40;;;;;;;2.60;2.40;;;;;;;-2.25;100.00;92443.56;2097342;28;20024;-88
2021/12/03 01:21:41;;;;;;;3.20;2.60;;;;;;;-2.11;100.00;92449.00;2074138;28;20034;-87
2021/12/03 01:22:45;;;;;;;3.45;2.15;;;;;;;-2.16;100.00;92447.44;2080722;28;20063;-88
2021/12/03 01:23:47;;;;;;;3.75;2.28;;;;;;;-2.08;100.00;92443.06;2089920;28;20043;-87
2021/12/03 01:24:47;;;;;;;2.60;2.40;;;;;;;-1.96;100.00;92452.59;2098262;28;20099;-87
2021/12/03 01:25:49;;;;;;;2.50;2.30;;;;;;;-2.10;100.00;92455.75;2098309;28;20028;-89
2021/12/03 01:26:54;;;;;;;2.60;2.40;;;;;;;-2.01;100.00;92458.88;2089273;28;20063;-88
2021/12/03 01:27:56;;;;;;;3.80;2.72;;;;;;;-2.26;100.00;92455.13;2088256;28;20389;-89
2021/12/03 01:28:57;;;;;;;2.83;2.60;;;;;;;-2.10;100.00;92456.50;2090043;28;20064;-88
2021/12/03 01:30:00;;;;;;;2.40;2.20;;;;;;;-2.22;100.00;92458.56;2090014;28;20033;-87
2021/12/03 01:31:01;;;;;;;2.72;2.50;;;;;;;-2.30;100.00;92457.69;2090689;28;20111;-90
2021/12/03 01:32:02;;;;;;;2.78;2.42;;;;;;;-2.13;100.00;92457.22;2097944;28;20429;-88
2021/12/03 01:33:10;;;;;;;3.90;2.30;;;;;;;-2.16;100.00;92462.38;2098107;28;20032;-88
2021/12/03 01:34:11;;;;;;;3.00;2.22;;;;;;;-2.20;100.00;92461.56;2096811;28;20055;-90
2021/12/03 01:35:14;;;;;;;2.45;2.25;;;;;;;-2.30;100.00;92453.22;2089859;28;20020;-88
2021/12/03 01:36:15;;;;;;;4.22;2.40;;;;;;;-2.32;100.00;92459.91;2081848;28;20043;-88
2021/12/03 01:37:16;;;;;;;4.25;2.33;;;;;;;-2.26;100.00;92468.22;2090159;28;20032;-89
2021/12/03 01:38:18;;;;;;;2.85;2.55;;;;;;;-2.21;100.00;92460.06;2089939;28;20032;-89
2021/12/03 01:39:20;;;;;;;4.40;2.60;;;;;;;-2.19;100.00;92471.72;2085254;28;20463;-87
2021/12/03 01:40:24;;;;;;;3.65;2.40;;;;;;;-2.12;100.00;92471.81;2074908;28;20049;-88
2021/12/03 01:41:27;;;;;;;4.82;2.70;;;;;;;-2.25;100.00;92472.34;2098960;28;20512;-89
2021/12/03 01:42:28;;;;;;;3.85;2.90;;;;;;;-2.29;100.00;92465.19;2098252;28;20032;-89
2021/12/03 01:43:29;;;;;;;2.10;2.00;;;;;;;-2.14;100.00;92471.41;2092617;28;20071;-89
2021/12/03 01:44:30;;;;;;;2.83;2.53;;;;;;;-2.08;100.00;92474.47;2085967;28;20029;-88
2021/12/03 01:45:34;;;;;;;3.42;2.55;;;;;;;-2.13;100.00;92470.31;2098183;28;20043;-89
2021/12/03 01:46:36;;;;;;;4.90;2.45;;;;;;;-2.35;100.00;92473.69;2098439;28;20055;-89
2021/12/03 01:47:40;;;;;;;4.22;2.53;;;;;;;-2.19;100.00;92473.59;2094986;28;20028;-88
2021/12/03 01:48:44;;;;;;;2.75;2.55;;;;;;;-2.20;100.00;92472.81;2090203;28;20466;-88
2021/12/03 01:49:45;;;;;;;2.72;2.40;;;;;;;-2.22;100.00;92472.41;2082379;28;20383;-87
2021/12/03 01:50:47;;;;;;;4.90;2.42;;;;;;;-2.12;100.00;92471.81;2080649;28;20025;-88
2021/12/03 01:51:49;;;;;;;2.60;2.40;;;;;;;-2.20;100.00;92472.81;2073395;28;20112;-88
2021/12/03 01:52:50;;;;;;;3.47;2.58;;;;;;;-2.23;100.00;92475.38;2081509;28;20471;-88
2021/12/03 01:54:14;;;;;;;3.20;2.90;;;;;;;-2.16;100.00;92478.84;2083831;28;20029;-90
2021/12/03 01:55:15;;;;;;;3.75;2.67;;;;;;;-2.28;100.00;92476.44;2092805;28;20024;-87
2021/12/03 01:56:17;;;;;;;3.13;2.83;;;;;;;-2.20;100.00;92475.41;2089929;28;20025;-88
2021/12/03 01:57:21;;;;;;;3.13;2.60;;;;;;;-2.20;100.00;92477.28;2081421;28;20027;-87
2021/12/03 01:58:22;;;;;;;2.53;2.35;;;;;;;-2.18;100.00;92475.84;2084300;28;20024;-86
2021/12/03 01:59:23;;;;;;;2.90;2.58;;;;;;;-2.11;100.00;92478.56;2089857;28;20100;-87
2021/12/03 02:00:36;;;;;;;3.10;2.60;;;;;;;-2.22;100.00;92467.16;2089703;28;20542;-88
2021/12/03 02:01:38;;;;;;;3.55;2.72;;;;;;;-2.23;100.00;92467.53;2101184;28;20481;-90
2021/12/03 02:02:39;;;;;;;2.92;2.72;;;;;;;-2.33;100.00;92468.84;2097818;28;20027;-88
2021/12/03 02:03:42;;;;;;;3.20;2.90;;;;;;;-2.21;100.00;92473.91;2089810;28;20032;-91
2021/12/03 02:04:43;;;;;;;3.15;2.85;;;;;;;-2.38;100.00;92469.91;2098208;28;20050;-87
2021/12/03 02:05:45;;;;;;;3.22;2.92;;;;;;;-2.37;100.00;92468.81;2089828;28;20024;-90
2021/12/03 02:06:46;;;;;;;3.20;2.90;;;;;;;-2.45;100.00;92469.81;2094127;28;20033;-87
2021/12/03 02:19:33;;;;;;;;;;;;;;;-2.45;100.00;92467.19;2131765;27;20609;-90
2021/12/03 02:20:39;;;;;;;4.25;3.28;;;;;;;-2.43;100.00;92470.22;2113383;28;19916;-90
2021/12/03 02:21:41;;;;;;;4.95;3.30;;;;;;;-2.33;100.00;92472.25;2089835;28;20033;-90
2021/12/03 02:22:43;;;;;;;7.65;2.85;;;;;;;-2.39;100.00;92462.41;2092075;28;20016;-90
2021/12/03 02:23:46;;;;;;;4.07;2.85;;;;;;;-2.32;100.00;92473.75;2105122;28;20036;-90
2021/12/03 02:24:47;;;;;;;2.63;2.42;;;;;;;-2.45;100.00;92467.19;2097286;28;20098;-90
2021/12/03 02:25:49;;;;;;;4.95;3.00;;;;;;;-2.41;100.00;92475.88;2096790;28;20036;-88
2021/12/03 02:26:50;;;;;;;3.20;2.90;;;;;;;-2.26;100.00;92468.22;2105078;28;20050;-89
2021/12/03 02:27:53;;;;;;;3.50;2.90;;;;;;;-2.24;100.00;92471.25;2096420;28;20102;-88
2021/12/03 02:28:54;;;;;;;2.45;2.25;;;;;;;-2.30;100.00;92468.91;2097172;28;20028;-89
2021/12/03 02:29:55;;;;;;;5.00;3.00;;;;;;;-2.31;100.00;92470.03;2100153;28;20174;-88
2021/12/03 02:30:57;;;;;;;3.35;3.00;;;;;;;-2.54;100.00;92477.16;2102087;28;20082;-89
2021/12/03 02:31:58;;;;;;;3.55;3.00;;;;;;;-2.62;100.00;92478.13;2096702;28;20033;-88
2021/12/03 02:32:58;;;;;;;3.03;2.83;;;;;;;-2.72;100.00;92465.59;2096785;28;20024;-88
2021/12/03 02:34:00;;;;;;;3.25;2.80;;;;;;;-2.76;100.00;92476.03;2096397;28;20887;-88
2021/12/03 02:35:02;;;;;;;3.88;3.50;;;;;;;-2.80;100.00;92475.22;2096744;28;20539;-88
2021/12/03 02:36:04;;;;;;;5.85;3.35;;;;;;;-2.51;100.00;92483.53;2096810;28;20442;-90
2021/12/03 02:37:05;;;;;;;3.45;3.13;;;;;;;-2.53;100.00;92476.03;2097089;28;20025;-90
2021/12/03 02:38:07;;;;;;;3.22;2.92;;;;;;;-2.46;100.00;92472.75;2104852;28;20032;-90
2021/12/03 02:39:18;;;;;;;5.57;2.97;;;;;;;-2.59;100.00;92478.19;2096883;28;20021;-88
2021/12/03 02:40:21;;;;;;;3.47;3.05;;;;;;;-2.66;100.00;92483.28;2099438;28;20033;-90
2021/12/03 02:41:22;;;;;;;4.05;2.83;;;;;;;-2.63;100.00;92494.94;2105356;28;20032;-89
2021/12/03 02:42:23;;;;;;;2.50;2.30;;;;;;;-2.68;100.00;92484.72;2104638;28;20559;-89
2021/12/03 02:43:26;;;;;;;4.25;3.13;;;;;;;-2.63;100.00;92479.22;2105041;28;20059;-89
2021/12/03 02:44:27;;;;;;;6.03;3.33;;;;;;;-2.54;100.00;92490.97;2096817;28;20031;-90
2021/12/03 02:45:30;;;;;;;5.03;3.22;;;;;;;-2.48;100.00;92490.69;2096401;28;20031;-88
2021/12/03 02:46:34;;;;;;;3.33;2.85;;;;;;;-2.63;100.00;92490.44;2097122;28;20021;-88
2021/12/03 02:47:38;;;;;;;4.78;3.20;;;;;;;-2.62;100.00;92481.50;2096965;28;20475;-90
2021/12/03 02:48:43;;;;;;;3.17;2.85;;;;;;;-2.67;100.00;92489.63;2097027;28;20491;-90
2021/12/03 02:49:49;;;;;;;4.00;2.63;;;;;;;-2.82;100.00;92485.25;2097476;28;20057;-90
2021/12/03 02:50:55;;;;;;;5.03;3.42;;;;;;;-2.80;100.00;92485.66;2105254;28;20028;-91
2021/12/03 02:52:01;;;;;;;3.72;3.38;;;;;;;-2.72;100.00;92492.53;2097522;28;20578;-89
2021/12/03 02:53:05;;;;;;;6.22;3.13;;;;;;;-2.47;100.00;92489.56;2097817;28;20082;-90
2021/12/03 02:54:10;;;;;;;5.03;2.95;;;;;;;-2.34;100.00;92496.13;2097159;28;20075;-88
2021/12/03 02:55:13;;;;;;;3.05;2.72;;;;;;;-2.35;100.00;92489.41;2105507;28;20032;-88
2021/12/03 02:56:14;;;;;;;5.53;2.95;;;;;;;-2.46;100.00;92483.22;2096486;28;20025;-90
2021/12/03 02:57:19;;;;;;;4.93;3.25;;;;;;;-2.50;100.00;92492.88;2104565;28;20056;-91
2021/12/03 02:58:20;;;;;;;3.72;3.03;;;;;;;-2.55;100.00;92486.84;2097007;28;20055;-89
2021/12/03 02:59:21;;;;;;;5.13;3.40;;;;;;;-2.70;100.00;92479.84;2092829;28;20368;-89
2021/12/03 03:00:30;;;;;;;3.90;3.13;;;;;;;-2.63;100.00;92482.59;2096168;28;20128;-88
2021/12/03 03:01:32;;;;;;;3.47;3.17;;;;;;;-2.71;100.00;92480.97;2098728;28;20032;-89
2021/12/03 03:02:36;;;;;;;4.88;3.42;;;;;;;-2.72;100.00;92481.28;2104728;28;20479;-88
2021/12/03 03:03:39;;;;;;;4.00;3.60;;;;;;;-2.75;100.00;92484.63;2097152;28;20052;-90
2021/12/03 03:04:44;;;;;;;3.50;3.20;;;;;;;-2.70;100.00;92486.94;2105048;28;20130;-88
2021/12/03 03:05:53;;;;;;;3.33;3.03;;;;;;;-2.58;100.00;92490.16;2105119;28;20414;-90
2021/12/03 03:06:56;;;;;;;3.55;3.20;;;;;;;-2.66;100.00;92490.38;2105676;28;20020;-89
2021/12/03 03:07:57;;;;;;;6.38;3.10;;;;;;;-2.73;100.00;92498.84;2104726;28;20111;-87
2021/12/03 03:08:58;;;;;;;3.40;2.60;;;;;;;-2.67;100.00;92494.88;2104490;28;20069;-90
2021/12/03 03:10:00;;;;;;;3.90;3.60;;;;;;;-2.54;100.00;92498.06;2112500;28;20019;-90
2021/12/03 03:11:06;;;;;;;4.13;3.20;;;;;;;-2.57;100.00;92499.50;2095682;28;20491;-88
2021/12/03 03:12:07;;;;;;;4.68;3.40;;;;;;;-2.45;100.00;92497.84;2095826;28;20039;-90
2021/12/03 03:13:12;;;;;;;5.25;3.63;;;;;;;-2.44;100.00;92489.63;2104648;28;20024;-89
2021/12/03 03:14:16;;;;;;;3.13;2.83;;;;;;;-2.41;100.00;92488.94;2089032;28;20021;-88
2021/12/03 03:15:21;;;;;;;3.47;3.17;;;;;;;-2.43;100.00;92490.38;2088999;28;20032;-88
2021/12/03 03:16:25;;;;;;;3.38;2.80;;;;;;;-2.38;100.00;92488.22;2097233;28;20032;-90
2021/12/03 03:17:37;;;;;;;3.17;2.80;;;;;;;-2.42;100.00;92495.25;2107280;28;20531;-88
2021/12/03 03:18:45;;;;;;;4.55;3.40;;;;;;;-2.39;100.00;92496.44;2095029;28;20142;-88
2021/12/03 03:19:51;;;;;;;3.55;2.70;;;;;;;-2.33;100.00;92495.03;2072604;28;20061;-91
2021/12/03 03:21:03;;;;;;;3.88;3.08;;;;;;;-2.39;100.00;92483.34;2083969;28;20040;-89
2021/12/03 03:22:15;;;;;;;4.50;3.00;;;;;;;-2.48;100.00;92498.53;2086338;28;20044;-87
2021/12/03 03:23:21;;;;;;;5.68;3.25;;;;;;;-2.56;100.00;92495.78;2069319;28;20109;-86
2021/12/03 03:24:25;;;;;;;3.97;2.97;;;;;;;-2.46;100.00;92488.47;2067494;28;20034;-87
2021/12/03 03:25:27;;;;;;;4.28;3.40;;;;;;;-2.47;100.00;92494.81;2067468;28;20161;-89
2021/12/03 03:26:31;;;;;;;2.85;2.47;;;;;;;-2.34;100.00;92488.28;2074358;28;20527;-88
2021/12/03 03:27:34;;;;;;;4.25;3.00;;;;;;;-2.32;100.00;92499.19;2083078;28;20028;-90
2021/12/03 03:28:40;;;;;;;3.50;3.20;;;;;;;-2.38;100.00;92496.06;2090428;28;20492;-90
2021/12/03 03:29:44;;;;;;;3.88;3.30;;;;;;;-2.45;100.00;92501.22;2074925;28;20048;-91
2021/12/03 03:30:51;;;;;;;3.10;2.85;;;;;;;-2.62;100.00;92505.03;2067188;28;20032;-89
2021/12/03 03:31:52;;;;;;;5.45;3.00;;;;;;;-2.61;100.00;92508.41;2067664;28;20535;-89
2021/12/03 03:32:55;;;;;;;3.72;3.33;;;;;;;-2.49;100.00;92505.63;2065858;28;20037;-87
2021/12/03 03:33:56;;;;;;;3.30;3.00;;;;;;;-2.28;100.00;92513.09;2074597;28;20026;-88
2021/12/03 03:35:04;;;;;;;4.45;3.33;;;;;;;-2.38;100.00;92516.25;2082318;28;20029;-87
2021/12/03 03:36:11;;;;;;;3.28;2.65;;;;;;;-2.35;100.00;92521.56;2070468;28;20030;-88
2021/12/03 03:37:14;;;;;;;4.28;2.85;;;;;;;-2.43;100.00;92511.31;2083834;28;20799;-88
2021/12/03 03:38:16;;;;;;;4.03;2.92;;;;;;;-2.48;100.00;92514.22;2082376;28;20068;-87
2021/12/03 03:39:22;;;;;;;4.43;3.30;;;;;;;-2.53;100.00;92518.66;2073847;28;20576;-90
2021/12/03 03:40:23;;;;;;;2.92;2.72;;;;;;;-2.47;100.00;92515.72;2067408;28;20033;-91
2021/12/03 03:41:35;;;;;;;3.33;3.00;;;;;;;-2.57;100.00;92524.91;2074339;28;20053;-88
2021/12/03 03:42:36;;;;;;;4.60;3.10;;;;;;;-2.58;100.00;92533.88;2088815;28;20033;-89
2021/12/03 03:43:39;;;;;;;3.60;3.17;;;;;;;-2.49;100.00;92537.03;2074091;28;20026;-89
2021/12/03 03:44:41;;;;;;;4.35;3.35;;;;;;;-2.42;100.00;92546.84;2066538;28;20449;-89
2021/12/03 03:45:43;;;;;;;3.53;2.97;;;;;;;-2.38;100.00;92547.66;2074455;28;20025;-89
2021/12/03 03:46:45;;;;;;;3.92;3.00;;;;;;;-2.33;100.00;92539.53;2081984;28;20030;-89
2021/12/03 03:47:46;;;;;;;4.43;3.35;;;;;;;-2.26;100.00;92536.28;2065984;28;20030;-89
2021/12/03 03:48:51;;;;;;;4.13;2.85;;;;;;;-2.42;100.00;92533.75;2065935;28;20023;-91
2021/12/03 03:49:53;;;;;;;4.75;3.33;;;;;;;-2.48;100.00;92537.78;2074730;28;20022;-89
2021/12/03 03:50:54;;;;;;;3.50;3.15;;;;;;;-2.49;100.00;92531.78;2074357;28;20018;-92
2021/12/03 03:51:57;;;;;;;4.30;3.20;;;;;;;-2.53;100.00;92536.97;2073781;28;20022;-89
2021/12/03 03:52:58;;;;;;;7.25;3.67;;;;;;;-2.58;100.00;92537.25;2074615;28;20021;-87
2021/12/03 03:53:59;;;;;;;5.25;3.10;;;;;;;-2.56;100.00;92535.03;2074009;28;20117;-88
2021/12/03 03:55:00;;;;;;;3.92;3.38;;;;;;;-2.59;100.00;92534.97;2065773;28;20026;-91
2021/12/03 03:56:02;;;;;;;3.45;3.22;;;;;;;-2.43;100.00;92537.50;2065957;28;20089;-88
2021/12/03 03:57:03;;;;;;;5.60;3.50;;;;;;;-2.42;100.00;92537.13;2068074;28;20113;-88
2021/12/03 03:58:05;;;;;;;4.38;3.97;;;;;;;-2.45;100.00;92527.38;2066068;28;20033;-86
2021/12/03 03:59:06;;;;;;;5.13;3.50;;;;;;;-2.42;100.00;92537.13;2074815;28;20029;-86
2021/12/03 04:00:09;;;;;;;4.50;4.10;;;;;;;-2.42;100.00;92537.13;2073661;28;20117;-88
2021/12/03 04:01:15;;;;;;;4.60;3.30;;;;;;;-2.31;100.00;92538.06;2074721;28;20022;-89
2021/12/03 04:02:18;;;;;;;5.35;3.20;;;;;;;-2.31;100.00;92540.69;2082383;28;20021;-87
2021/12/03 04:03:19;;;;;;;6.15;3.30;;;;;;;-2.30;100.00;92536.97;2081980;28;20047;-89
2021/12/03 04:04:21;;;;;;;5.78;3.25;;;;;;;-2.28;100.00;92537.38;2065652;28;20066;-90
2021/12/03 04:05:23;;;;;;;4.57;3.30;;;;;;;-2.24;100.00;92542.66;2065961;28;20433;-88
2021/12/03 04:06:24;;;;;;;3.78;2.70;;;;;;;-2.31;100.00;92537.31;2066065;28;20027;-88
2021/12/03 04:07:25;;;;;;;4.63;3.42;;;;;;;-2.41;100.00;92530.81;2065433;28;20028;-91
2021/12/03 04:08:30;;;;;;;3.47;3.17;;;;;;;-2.37;100.00;92539.47;2068776;28;20026;-89
2021/12/03 04:09:31;;;;;;;3.90;2.90;;;;;;;-2.38;100.00;92543.19;2074840;28;20025;-89
2021/12/03 04:10:33;;;;;;;3.50;3.20;;;;;;;-2.45;100.00;92545.69;2081941;28;20504;-89
2021/12/03 04:11:40;;;;;;;4.40;3.20;;;;;;;-2.16;100.00;92544.28;2090519;28;20613;-89
2021/12/03 04:12:41;;;;;;;3.70;2.70;;;;;;;-2.04;100.00;92559.06;2081623;28;20028;-89
2021/12/03 04:13:43;;;;;;;2.80;2.60;;;;;;;-2.03;100.00;92550.09;2077165;28;20049;-89
2021/12/03 04:14:44;;;;;;;3.50;2.80;;;;;;;-2.06;100.00;92554.19;2073857;28;20112;-90
2021/12/03 04:15:45;;;;;;;3.95;2.95;;;;;;;-2.19;100.00;92555.47;2065631;28;20049;-87
2021/12/03 04:16:48;;;;;;;3.33;3.03;;;;;;;-2.24;100.00;92555.75;2065704;28;20413;-89
2021/12/03 04:17:50;;;;;;;3.97;3.20;;;;;;;-2.33;100.00;92558.63;2073699;28;20032;-87
2021/12/03 04:18:57;;;;;;;4.68;3.83;;;;;;;-2.38;100.00;92561.50;2074247;28;20018;-88
2021/12/03 04:20:00;;;;;;;5.30;3.53;;;;;;;-2.36;100.00;92566.41;2075276;28;20025;-88
2021/12/03 04:21:01;;;;;;;5.65;3.33;;;;;;;-2.44;100.00;92559.53;2074049;28;20036;-90
2021/12/03 04:22:03;;;;;;;4.88;3.42;;;;;;;-2.34;100.00;92566.81;2065447;28;20022;-88
2021/12/03 04:23:04;;;;;;;3.90;3.47;;;;;;;-2.42;100.00;92567.78;2066027;28;20046;-88
2021/12/03 04:24:06;;;;;;;3.42;3.13;;;;;;;-2.35;100.00;92571.28;2076059;28;20022;-86
2021/12/03 04:25:14;;;;;;;4.57;3.80;;;;;;;-2.15;100.00;92571.22;2073933;28;20025;-90
2021/12/03 04:26:15;;;;;;;5.00;4.32;;;;;;;-2.10;100.00;92565.72;2083460;28;20021;-89
2021/12/03 04:27:16;;;;;;;8.63;4.70;;;;;;;-2.13;100.00;92569.03;2095364;28;20458;-89
2021/12/03 04:28:18;;;;;;;4.18;3.78;;;;;;;-2.23;100.00;92570.38;2096944;28;20025;-87
2021/12/03 04:29:19;;;;;;;3.88;3.45;;;;;;;-2.14;100.00;92573.50;2081252;28;20060;-87
2021/12/03 04:30:24;;;;;;;6.15;3.78;;;;;;;-2.17;100.00;92571.59;2086016;28;20042;-90
2021/12/03 04:31:26;;;;;;;4.28;3.70;;;;;;;-2.29;100.00;92571.75;2081625;28;20030;-89
2021/12/03 04:32:27;;;;;;;4.57;3.78;;;;;;;-2.42;100.00;92576.38;2075120;28;20025;-87
2021/12/03 04:33:28;;;;;;;5.80;3.97;;;;;;;-2.27;100.00;92574.78;2073476;28;20030;-89
2021/12/03 04:34:32;;;;;;;5.35;4.00;;;;;;;-2.28;100.00;92586.38;2065625;28;20503;-89
2021/12/03 04:35:34;;;;;;;4.90;3.90;;;;;;;-2.39;100.00;92580.19;2066467;28;20432;-88
2021/12/03 04:36:35;;;;;;;3.97;3.65;;;;;;;-2.48;100.00;92577.78;2073830;28;20045;-88
2021/12/03 04:37:37;;;;;;;3.97;3.58;;;;;;;-2.46;100.00;92578.19;2067898;28;20026;-88
2021/12/03 04:38:38;;;;;;;5.15;3.60;;;;;;;-2.51;100.00;92581.06;2073914;28;20018;-88
2021/12/03 04:39:39;;;;;;;4.28;3.55;;;;;;;-2.42;100.00;92586.09;2082109;28;20041;-88
2021/12/03 04:40:41;;;;;;;6.25;3.72;;;;;;;-2.34;100.00;92582.50;2090066;28;20104;-89
2021/12/03 04:41:43;;;;;;;4.38;3.58;;;;;;;-2.24;100.00;92584.53;2076993;28;20026;-88
2021/12/03 04:42:44;;;;;;;4.63;3.42;;;;;;;-2.29;100.00;92582.97;2073587;28;20060;-88
2021/12/03 04:43:47;;;;;;;4.00;3.60;;;;;;;-2.43;100.00;92585.34;2073678;28;20496;-87
2021/12/03 04:44:48;;;;;;;4.95;3.35;;;;;;;-2.59;100.00;92595.91;2072425;28;20045;-87
2021/12/03 04:45:49;;;;;;;3.70;3.40;;;;;;;-2.58;100.00;92594.81;2082001;28;20104;-90
2021/12/03 04:46:50;;;;;;;3.78;3.42;;;;;;;-2.69;100.00;92593.06;2081793;28;20052;-89
2021/12/03 04:47:52;;;;;;;6.38;3.88;;;;;;;-2.57;100.00;92595.56;2065330;28;20041;-88
2021/12/03 04:48:53;;;;;;;4.68;3.65;;;;;;;-2.55;100.00;92601.97;2065730;28;20447;-89
2021/12/03 04:49:54;;;;;;;4.38;3.80;;;;;;;-2.37;100.00;92602.28;2073667;28;20030;-87
2021/12/03 04:50:55;;;;;;;4.45;3.42;;;;;;;-2.46;100.00;92596.50;2081682;28;20074;-88
2021/12/03 04:51:57;;;;;;;4.65;3.50;;;;;;;-2.44;100.00;92610.00;2081447;28;20097;-89
2021/12/03 04:53:01;;;;;;;3.47;3.17;;;;;;;-2.47;100.00;92599.47;2073558;28;20161;-88
2021/12/03 04:54:02;;;;;;;3.53;3.22;;;;;;;-2.49;100.00;92604.28;2082528;28;20044;-88
2021/12/03 04:55:05;;;;;;;4.28;3.75;;;;;;;-2.53;100.00;92596.38;2081652;28;20072;-88
2021/12/03 04:56:10;;;;;;;4.65;3.20;;;;;;;-2.56;100.00;92599.69;2068069;28;20107;-90
2021/12/03 04:57:10;;;;;;;3.58;3.28;;;;;;;-2.49;100.00;92606.91;2080326;28;20041;-88
2021/12/03 04:58:12;;;;;;;3.30;3.10;;;;;;;-2.64;100.00;92600.63;2079829;28;20029;-87
2021/12/03 04:59:13;;;;;;;4.68;3.47;;;;;;;-2.61;100.00;92598.09;2081686;28;20063;-88
2021/12/03 05:00:17;;;;;;;5.00;3.47;;;;;;;-2.60;100.00;92612.69;2081217;28;20025;-88
2021/12/03 05:01:18;;;;;;;5.65;3.75;;;;;;;-2.52;100.00;92608.34;2084967;28;20059;-89
2021/12/03 05:02:21;;;;;;;5.22;3.67;;;;;;;-2.55;100.00;92601.19;2077205;28;20036;-87
2021/12/03 05:03:24;;;;;;;6.03;3.42;;;;;;;-2.51;100.00;92603.88;2085525;28;20029;-90